sensor_id;sensor_type;location;lat;lon;timestamp;pressure;altitude;pressure_sealevel;temperature;humidity
71361;BME280;59166;48.908;1.870;2023-04-15T00:04:29;99205.44;;;8.47;100.00
71361;BME280;59166;48.908;1.870;2023-04-15T00:09:29;99197.38;;;8.47;100.00
71361;BME280;59166;48.908;1.870;2023-04-15T00:14:32;99200.31;;;8.46;100.00
71361;BME280;59166;48.908;1.870;2023-04-15T00:19:35;99188.50;;;8.47;100.00
71361;BME280;59166;48.908;1.870;2023-04-15T00:24:36;99187.41;;;8.48;100.00
71361;BME280;59166;48.908;1.870;2023-04-15T00:29:37;99184.97;;;8.51;100.00
71361;BME280;59166;48.908;1.870;2023-04-15T00:34:39;99179.31;;;8.48;100.00
71361;BME280;59166;48.908;1.870;2023-04-15T00:39:40;99166.41;;;8.50;100.00
71361;BME280;59166;48.908;1.870;2023-04-15T00:44:41;99172.06;;;8.53;100.00
71361;BME280;59166;48.908;1.870;2023-04-15T00:49:43;99169.63;;;8.57;100.00
71361;BME280;59166;48.908;1.870;2023-04-15T00:54:44;99168.22;;;8.64;100.00
71361;BME280;59166;48.908;1.870;2023-04-15T00:59:45;99168.50;;;8.63;100.00
71361;BME280;59166;48.908;1.870;2023-04-15T01:04:48;99172.81;;;8.64;100.00
71361;BME280;59166;48.908;1.870;2023-04-15T01:09:49;99179.25;;;8.68;100.00
71361;BME280;59166;48.908;1.870;2023-04-15T01:14:50;99188.94;;;8.69;100.00
71361;BME280;59166;48.908;1.870;2023-04-15T01:19:52;99194.63;;;8.67;100.00
71361;BME280;59166;48.908;1.870;2023-04-15T01:25:00;99176.84;;;8.66;100.00
71361;BME280;59166;48.908;1.870;2023-04-15T01:30:06;99194.63;;;8.62;100.00
71361;BME280;59166;48.908;1.870;2023-04-15T01:35:08;99191.44;;;8.50;100.00
71361;BME280;59166;48.908;1.870;2023-04-15T01:40:09;99197.13;;;8.44;100.00
71361;BME280;59166;48.908;1.870;2023-04-15T01:45:12;99196.03;;;8.40;100.00
71361;BME280;59166;48.908;1.870;2023-04-15T01:50:13;99205.72;;;8.36;100.00
71361;BME280;59166;48.908;1.870;2023-04-15T01:55:14;99207.63;;;8.35;100.00
71361;BME280;59166;48.908;1.870;2023-04-15T02:00:16;99218.94;;;8.37;100.00
71361;BME280;59166;48.908;1.870;2023-04-15T02:05:17;99208.44;;;8.36;100.00
71361;BME280;59166;48.908;1.870;2023-04-15T02:10:18;99203.84;;;8.31;100.00
71361;BME280;59166;48.908;1.870;2023-04-15T02:15:20;99227.00;;;8.22;100.00
71361;BME280;59166;48.908;1.870;2023-04-15T02:20:21;99235.34;;;8.20;100.00
71361;BME280;59166;48.908;1.870;2023-04-15T02:25:22;99237.25;;;8.15;100.00
71361;BME280;59166;48.908;1.870;2023-04-15T02:30:25;99252.28;;;8.11;100.00
71361;BME280;59166;48.908;1.870;2023-04-15T02:35:26;99250.16;;;8.03;100.00
71361;BME280;59166;48.908;1.870;2023-04-15T02:40:27;99254.44;;;7.94;100.00
71361;BME280;59166;48.908;1.870;2023-04-15T02:45:29;99270.03;;;7.87;100.00
71361;BME280;59166;48.908;1.870;2023-04-15T02:50:30;99283.75;;;7.80;100.00
71361;BME280;59166;48.908;1.870;2023-04-15T02:55:31;99289.13;;;7.75;100.00
71361;BME280;59166;48.908;1.870;2023-04-15T03:00:34;99303.09;;;7.72;100.00
71361;BME280;59166;48.908;1.870;2023-04-15T03:05:34;99309.25;;;7.67;100.00
71361;BME280;59166;48.908;1.870;2023-04-15T03:10:35;99314.38;;;7.69;100.00
71361;BME280;59166;48.908;1.870;2023-04-15T03:15:38;99317.59;;;7.71;100.00
71361;BME280;59166;48.908;1.870;2023-04-15T03:20:39;99326.19;;;7.68;100.00
71361;BME280;59166;48.908;1.870;2023-04-15T03:25:40;99334.25;;;7.68;100.00
71361;BME280;59166;48.908;1.870;2023-04-15T03:30:45;99336.44;;;7.66;100.00
71361;BME280;59166;48.908;1.870;2023-04-15T03:35:46;99350.13;;;7.64;100.00
71361;BME280;59166;48.908;1.870;2023-04-15T03:40:47;99353.09;;;7.63;100.00
71361;BME280;59166;48.908;1.870;2023-04-15T03:45:49;99365.69;;;7.57;100.00
71361;BME280;59166;48.908;1.870;2023-04-15T03:50:50;99363.00;;;7.57;100.00
71361;BME280;59166;48.908;1.870;2023-04-15T03:55:51;99367.03;;;7.55;100.00
71361;BME280;59166;48.908;1.870;2023-04-15T04:00:53;99368.09;;;7.54;100.00
71361;BME280;59166;48.908;1.870;2023-04-15T04:05:54;99370.75;;;7.54;100.00
71361;BME280;59166;48.908;1.870;2023-04-15T04:10:55;99380.44;;;7.55;100.00
71361;BME280;59166;48.908;1.870;2023-04-15T04:15:58;99378.81;;;7.54;100.00
71361;BME280;59166;48.908;1.870;2023-04-15T04:20:59;99386.06;;;7.53;100.00
71361;BME280;59166;48.908;1.870;2023-04-15T04:26:00;99400.59;;;7.52;100.00
71361;BME280;59166;48.908;1.870;2023-04-15T04:31:02;99398.72;;;7.53;100.00
71361;BME280;59166;48.908;1.870;2023-04-15T04:36:04;99417.00;;;7.56;100.00
71361;BME280;59166;48.908;1.870;2023-04-15T04:41:05;99416.50;;;7.59;100.00
71361;BME280;59166;48.908;1.870;2023-04-15T04:46:07;99425.84;;;7.56;100.00
71361;BME280;59166;48.908;1.870;2023-04-15T04:51:08;99430.69;;;7.54;100.00
71361;BME280;59166;48.908;1.870;2023-04-15T04:56:09;99442.25;;;7.55;100.00
71361;BME280;59166;48.908;1.870;2023-04-15T05:01:12;99461.63;;;7.57;100.00
71361;BME280;59166;48.908;1.870;2023-04-15T05:06:13;99473.19;;;7.57;100.00
71361;BME280;59166;48.908;1.870;2023-04-15T05:11:14;99487.94;;;7.55;100.00
71361;BME280;59166;48.908;1.870;2023-04-15T05:16:16;99497.63;;;7.56;100.00
71361;BME280;59166;48.908;1.870;2023-04-15T05:21:17;99507.56;;;7.55;100.00
71361;BME280;59166;48.908;1.870;2023-04-15T05:26:18;99511.88;;;7.56;100.00
71361;BME280;59166;48.908;1.870;2023-04-15T05:31:21;99528.84;;;7.62;100.00
71361;BME280;59166;48.908;1.870;2023-04-15T05:36:21;99538.53;;;7.63;100.00
71361;BME280;59166;48.908;1.870;2023-04-15T05:41:22;99555.19;;;7.65;100.00
71361;BME280;59166;48.908;1.870;2023-04-15T05:46:25;99566.25;;;7.68;100.00
71361;BME280;59166;48.908;1.870;2023-04-15T05:51:26;99569.75;;;7.69;100.00
71361;BME280;59166;48.908;1.870;2023-04-15T05:56:27;99570.84;;;7.73;100.00
71361;BME280;59166;48.908;1.870;2023-04-15T06:01:29;99588.34;;;7.75;100.00
71361;BME280;59166;48.908;1.870;2023-04-15T06:06:30;99607.41;;;7.74;100.00
71361;BME280;59166;48.908;1.870;2023-04-15T06:11:31;99610.91;;;7.74;100.00
71361;BME280;59166;48.908;1.870;2023-04-15T06:16:33;99613.06;;;7.77;100.00
71361;BME280;59166;48.908;1.870;2023-04-15T06:21:35;99642.13;;;7.80;100.00
71361;BME280;59166;48.908;1.870;2023-04-15T06:26:36;99640.25;;;7.81;100.00
71361;BME280;59166;48.908;1.870;2023-04-15T06:31:38;99657.44;;;7.80;100.00
71361;BME280;59166;48.908;1.870;2023-04-15T06:36:39;99670.41;;;7.83;100.00
71361;BME280;59166;48.908;1.870;2023-04-15T06:41:40;99669.00;;;7.75;100.00
71361;BME280;59166;48.908;1.870;2023-04-15T06:46:43;99692.38;;;7.75;100.00
71361;BME280;59166;48.908;1.870;2023-04-15T06:51:44;99710.38;;;7.74;100.00
71361;BME280;59166;48.908;1.870;2023-04-15T06:56:45;99720.00;;;7.70;100.00
71361;BME280;59166;48.908;1.870;2023-04-15T07:01:47;99724.84;;;7.68;100.00
71361;BME280;59166;48.908;1.870;2023-04-15T07:06:48;99734.25;;;7.66;100.00
71361;BME280;59166;48.908;1.870;2023-04-15T07:11:49;99747.63;;;7.61;100.00
71361;BME280;59166;48.908;1.870;2023-04-15T07:16:52;99763.22;;;7.64;100.00
71361;BME280;59166;48.908;1.870;2023-04-15T07:21:53;99774.81;;;7.64;100.00
71361;BME280;59166;48.908;1.870;2023-04-15T07:26:54;99778.34;;;7.70;100.00
71361;BME280;59166;48.908;1.870;2023-04-15T07:31:56;99792.88;;;7.69;100.00
71361;BME280;59166;48.908;1.870;2023-04-15T07:36:57;99795.50;;;7.64;100.00
71361;BME280;59166;48.908;1.870;2023-04-15T07:41:58;99807.06;;;7.64;100.00
71361;BME280;59166;48.908;1.870;2023-04-15T07:47:01;99812.19;;;7.66;100.00
71361;BME280;59166;48.908;1.870;2023-04-15T07:52:03;99828.38;;;7.71;100.00
71361;BME280;59166;48.908;1.870;2023-04-15T07:57:04;99840.75;;;7.72;100.00
71361;BME280;59166;48.908;1.870;2023-04-15T08:02:06;99855.56;;;7.74;100.00
71361;BME280;59166;48.908;1.870;2023-04-15T08:07:07;99855.94;;;7.83;100.00
71361;BME280;59166;48.908;1.870;2023-04-15T08:12:08;99868.88;;;7.86;100.00
71361;BME280;59166;48.908;1.870;2023-04-15T08:17:10;99866.50;;;7.90;100.00
71361;BME280;59166;48.908;1.870;2023-04-15T08:22:11;99888.16;;;8.05;100.00
71361;BME280;59166;48.908;1.870;2023-04-15T08:27:13;99894.69;;;8.14;100.00
71361;BME280;59166;48.908;1.870;2023-04-15T08:32:15;99899.84;;;8.20;100.00
71361;BME280;59166;48.908;1.870;2023-04-15T08:37:16;99912.34;;;8.31;100.00
71361;BME280;59166;48.908;1.870;2023-04-15T08:42:20;99923.69;;;8.34;100.00
71361;BME280;59166;48.908;1.870;2023-04-15T08:47:29;99928.75;;;8.30;100.00
71361;BME280;59166;48.908;1.870;2023-04-15T08:52:30;99952.19;;;8.35;100.00
71361;BME280;59166;48.908;1.870;2023-04-15T08:57:32;99963.28;;;8.38;100.00
71361;BME280;59166;48.908;1.870;2023-04-15T09:02:37;99969.53;;;8.44;100.00
71361;BME280;59166;48.908;1.870;2023-04-15T09:07:38;99986.22;;;8.46;100.00
71361;BME280;59166;48.908;1.870;2023-04-15T09:12:48;100000.75;;;8.45;100.00
71361;BME280;59166;48.908;1.870;2023-04-15T09:17:57;100018.84;;;8.49;100.00
71361;BME280;59166;48.908;1.870;2023-04-15T09:23:01;100024.53;;;8.53;100.00
71361;BME280;59166;48.908;1.870;2023-04-15T09:28:11;100025.28;;;8.48;100.00
71361;BME280;59166;48.908;1.870;2023-04-15T09:33:18;100040.72;;;8.58;100.00
71361;BME280;59166;48.908;1.870;2023-04-15T09:38:20;100048.25;;;8.56;100.00
71361;BME280;59166;48.908;1.870;2023-04-15T09:43:36;100056.63;;;8.59;100.00
71361;BME280;59166;48.908;1.870;2023-04-15T09:48:41;100075.28;;;8.66;100.00
71361;BME280;59166;48.908;1.870;2023-04-15T09:53:45;100081.53;;;8.71;100.00
71361;BME280;59166;48.908;1.870;2023-04-15T09:58:58;100087.91;;;9.14;100.00
71361;BME280;59166;48.908;1.870;2023-04-15T10:04:04;100100.72;;;9.28;100.00
71361;BME280;59166;48.908;1.870;2023-04-15T10:09:06;100107.56;;;9.41;100.00
71361;BME280;59166;48.908;1.870;2023-04-15T10:14:12;100121.84;;;9.42;100.00
71361;BME280;59166;48.908;1.870;2023-04-15T10:19:22;100123.00;;;9.51;100.00
71361;BME280;59166;48.908;1.870;2023-04-15T10:24:29;100135.56;;;9.72;100.00
71361;BME280;59166;48.908;1.870;2023-04-15T10:29:37;100141.63;;;9.89;100.00
71361;BME280;59166;48.908;1.870;2023-04-15T10:34:41;100149.22;;;9.97;100.00
71361;BME280;59166;48.908;1.870;2023-04-15T10:39:45;100164.97;;;10.10;100.00
71361;BME280;59166;48.908;1.870;2023-04-15T10:44:51;100174.63;;;10.48;100.00
71361;BME280;59166;48.908;1.870;2023-04-15T10:50:19;100186.31;;;10.59;100.00
71361;BME280;59166;48.908;1.870;2023-04-15T10:55:24;100187.34;;;10.53;100.00
71361;BME280;59166;48.908;1.870;2023-04-15T11:00:30;100192.22;;;10.56;100.00
71361;BME280;59166;48.908;1.870;2023-04-15T11:05:50;100196.69;;;10.77;100.00
71361;BME280;59166;48.908;1.870;2023-04-15T11:10:52;100204.78;;;10.77;100.00
71361;BME280;59166;48.908;1.870;2023-04-15T11:16:00;100218.13;;;11.04;100.00
71361;BME280;59166;48.908;1.870;2023-04-15T11:21:04;100220.59;;;11.15;100.00
71361;BME280;59166;48.908;1.870;2023-04-15T11:26:06;100225.50;;;11.28;100.00
71361;BME280;59166;48.908;1.870;2023-04-15T11:31:09;100229.84;;;11.34;100.00
71361;BME280;59166;48.908;1.870;2023-04-15T11:36:12;100241.47;;;11.30;99.37
71361;BME280;59166;48.908;1.870;2023-04-15T11:41:13;100249.84;;;11.23;100.00
71361;BME280;59166;48.908;1.870;2023-04-15T11:46:14;100259.31;;;11.31;100.00
71361;BME280;59166;48.908;1.870;2023-04-15T11:51:17;100273.94;;;11.40;100.00
71361;BME280;59166;48.908;1.870;2023-04-15T11:56:19;100278.53;;;11.34;100.00
71361;BME280;59166;48.908;1.870;2023-04-15T12:01:20;100280.78;;;11.73;97.60
71361;BME280;59166;48.908;1.870;2023-04-15T12:06:22;100288.94;;;12.03;97.18
71361;BME280;59166;48.908;1.870;2023-04-15T12:11:28;100295.19;;;12.19;95.15
71361;BME280;59166;48.908;1.870;2023-04-15T12:16:30;100301.94;;;12.11;90.52
71361;BME280;59166;48.908;1.870;2023-04-15T12:21:36;100314.38;;;11.87;95.39
71361;BME280;59166;48.908;1.870;2023-04-15T12:26:42;100318.72;;;11.98;94.76
71361;BME280;59166;48.908;1.870;2023-04-15T12:31:48;100339.28;;;12.09;89.37
71361;BME280;59166;48.908;1.870;2023-04-15T12:36:50;100332.53;;;12.17;91.37
71361;BME280;59166;48.908;1.870;2023-04-15T12:41:51;100359.91;;;12.15;88.96
71361;BME280;59166;48.908;1.870;2023-04-15T12:46:53;100355.53;;;12.09;89.01
71361;BME280;59166;48.908;1.870;2023-04-15T12:51:56;100376.69;;;12.27;91.59
71361;BME280;59166;48.908;1.870;2023-04-15T12:56:58;100382.66;;;12.24;89.29
71361;BME280;59166;48.908;1.870;2023-04-15T13:01:59;100393.72;;;12.08;93.62
71361;BME280;59166;48.908;1.870;2023-04-15T13:07:01;100395.59;;;11.97;89.23
71361;BME280;59166;48.908;1.870;2023-04-15T13:12:03;100416.22;;;12.23;90.94
71361;BME280;59166;48.908;1.870;2023-04-15T13:17:04;100426.72;;;12.00;89.84
71361;BME280;59166;48.908;1.870;2023-04-15T13:22:06;100437.72;;;11.73;92.43
71361;BME280;59166;48.908;1.870;2023-04-15T13:27:07;100441.06;;;11.33;91.95
71361;BME280;59166;48.908;1.870;2023-04-15T13:32:08;100453.56;;;11.02;97.44
71361;BME280;59166;48.908;1.870;2023-04-15T13:37:10;100459.72;;;10.93;99.26
71361;BME280;59166;48.908;1.870;2023-04-15T13:42:11;100454.28;;;11.24;94.46
71361;BME280;59166;48.908;1.870;2023-04-15T13:47:12;100473.19;;;11.71;94.03
71361;BME280;59166;48.908;1.870;2023-04-15T13:52:14;100469.16;;;11.79;91.72
71361;BME280;59166;48.908;1.870;2023-04-15T13:57:15;100483.28;;;11.91;96.07
71361;BME280;59166;48.908;1.870;2023-04-15T14:02:16;100498.22;;;12.04;89.81
71361;BME280;59166;48.908;1.870;2023-04-15T14:07:18;100504.22;;;12.11;88.74
71361;BME280;59166;48.908;1.870;2023-04-15T14:12:19;100508.81;;;12.10;94.12
71361;BME280;59166;48.908;1.870;2023-04-15T14:17:20;100527.47;;;12.07;94.04
71361;BME280;59166;48.908;1.870;2023-04-15T14:22:22;100526.59;;;11.91;91.94
71361;BME280;59166;48.908;1.870;2023-04-15T14:27:23;100528.75;;;11.89;95.27
71361;BME280;59166;48.908;1.870;2023-04-15T14:32:24;100544.69;;;11.80;94.98
71361;BME280;59166;48.908;1.870;2023-04-15T14:37:26;100548.75;;;11.78;94.71
71361;BME280;59166;48.908;1.870;2023-04-15T14:42:27;100550.91;;;11.81;89.84
71361;BME280;59166;48.908;1.870;2023-04-15T14:47:28;100545.56;;;11.96;93.07
71361;BME280;59166;48.908;1.870;2023-04-15T14:52:31;100554.44;;;11.86;93.51
71361;BME280;59166;48.908;1.870;2023-04-15T14:57:31;100564.56;;;12.06;93.24
71361;BME280;59166;48.908;1.870;2023-04-15T15:02:32;100575.31;;;12.38;94.79
71361;BME280;59166;48.908;1.870;2023-04-15T15:07:36;100580.28;;;12.66;89.40
71361;BME280;59166;48.908;1.870;2023-04-15T15:12:37;100591.91;;;12.62;94.20
71361;BME280;59166;48.908;1.870;2023-04-15T15:17:38;100595.72;;;12.71;86.95
71361;BME280;59166;48.908;1.870;2023-04-15T15:22:40;100596.84;;;12.70;87.15
71361;BME280;59166;48.908;1.870;2023-04-15T15:27:41;100598.19;;;12.77;87.28
71361;BME280;59166;48.908;1.870;2023-04-15T15:32:43;100614.75;;;12.91;86.76
71361;BME280;59166;48.908;1.870;2023-04-15T15:37:45;100620.22;;;12.96;86.83
71361;BME280;59166;48.908;1.870;2023-04-15T15:42:46;100621.81;;;12.97;85.74
71361;BME280;59166;48.908;1.870;2023-04-15T15:47:47;100641.69;;;13.88;82.82
71361;BME280;59166;48.908;1.870;2023-04-15T15:52:49;100643.00;;;14.21;78.84
71361;BME280;59166;48.908;1.870;2023-04-15T15:57:50;100645.97;;;14.20;81.54
71361;BME280;59166;48.908;1.870;2023-04-15T16:02:54;100643.25;;;14.30;78.75
71361;BME280;59166;48.908;1.870;2023-04-15T16:07:56;100658.28;;;13.72;80.77
71361;BME280;59166;48.908;1.870;2023-04-15T16:12:57;100663.44;;;13.83;81.50
71361;BME280;59166;48.908;1.870;2023-04-15T16:17:58;100667.53;;;13.71;82.18
71361;BME280;59166;48.908;1.870;2023-04-15T16:23:10;100672.41;;;13.74;80.62
71361;BME280;59166;48.908;1.870;2023-04-15T16:28:18;100681.06;;;13.51;82.65
71361;BME280;59166;48.908;1.870;2023-04-15T16:33:20;100688.09;;;13.47;84.83
71361;BME280;59166;48.908;1.870;2023-04-15T16:38:23;100694.63;;;13.40;85.46
71361;BME280;59166;48.908;1.870;2023-04-15T16:43:24;100698.09;;;13.31;83.30
71361;BME280;59166;48.908;1.870;2023-04-15T16:48:26;100703.22;;;13.17;83.86
71361;BME280;59166;48.908;1.870;2023-04-15T16:53:28;100707.84;;;13.12;85.58
71361;BME280;59166;48.908;1.870;2023-04-15T16:58:29;100705.50;;;13.51;82.90
71361;BME280;59166;48.908;1.870;2023-04-15T17:03:30;100710.66;;;13.57;83.01
71361;BME280;59166;48.908;1.870;2023-04-15T17:08:33;100708.97;;;13.41;80.97
71361;BME280;59166;48.908;1.870;2023-04-15T17:13:34;100723.59;;;13.20;82.23
71361;BME280;59166;48.908;1.870;2023-04-15T17:18:35;100708.56;;;12.87;80.92
71361;BME280;59166;48.908;1.870;2023-04-15T17:23:37;100723.94;;;12.66;85.75
71361;BME280;59166;48.908;1.870;2023-04-15T17:28:37;100730.63;;;12.54;84.52
71361;BME280;59166;48.908;1.870;2023-04-15T17:33:38;100732.75;;;12.42;85.25
71361;BME280;59166;48.908;1.870;2023-04-15T17:38:40;100738.59;;;12.28;87.41
71361;BME280;59166;48.908;1.870;2023-04-15T17:43:41;100748.53;;;12.18;89.39
71361;BME280;59166;48.908;1.870;2023-04-15T17:48:42;100754.16;;;12.11;90.84
71361;BME280;59166;48.908;1.870;2023-04-15T17:53:44;100756.75;;;11.96;91.69
71361;BME280;59166;48.908;1.870;2023-04-15T17:58:45;100760.47;;;11.85;92.47
71361;BME280;59166;48.908;1.870;2023-04-15T18:03:45;100767.91;;;11.73;93.14
71361;BME280;59166;48.908;1.870;2023-04-15T18:08:48;100785.06;;;11.57;95.44
71361;BME280;59166;48.908;1.870;2023-04-15T18:13:48;100798.94;;;11.38;96.66
71361;BME280;59166;48.908;1.870;2023-04-15T18:18:49;100805.00;;;11.24;98.01
71361;BME280;59166;48.908;1.870;2023-04-15T18:23:51;100805.19;;;11.17;98.98
71361;BME280;59166;48.908;1.870;2023-04-15T18:28:52;100807.91;;;11.17;99.64
71361;BME280;59166;48.908;1.870;2023-04-15T18:33:52;100824.34;;;11.16;99.90
71361;BME280;59166;48.908;1.870;2023-04-15T18:38:54;100831.53;;;11.05;100.00
71361;BME280;59166;48.908;1.870;2023-04-15T18:43:55;100839.72;;;11.10;100.00
71361;BME280;59166;48.908;1.870;2023-04-15T18:48:55;100843.97;;;11.06;100.00
71361;BME280;59166;48.908;1.870;2023-04-15T18:53:57;100853.97;;;11.06;100.00
71361;BME280;59166;48.908;1.870;2023-04-15T18:58:58;100853.00;;;10.95;100.00
71361;BME280;59166;48.908;1.870;2023-04-15T19:03:59;100865.06;;;10.88;100.00
71361;BME280;59166;48.908;1.870;2023-04-15T19:09:01;100876.44;;;10.73;100.00
71361;BME280;59166;48.908;1.870;2023-04-15T19:14:02;100875.16;;;10.59;100.00
71361;BME280;59166;48.908;1.870;2023-04-15T19:19:03;100888.97;;;10.46;100.00
71361;BME280;59166;48.908;1.870;2023-04-15T19:24:10;100895.75;;;10.31;100.00
71361;BME280;59166;48.908;1.870;2023-04-15T19:29:11;100915.53;;;10.20;100.00
71361;BME280;59166;48.908;1.870;2023-04-15T19:34:15;100919.13;;;10.09;100.00
71361;BME280;59166;48.908;1.870;2023-04-15T19:39:18;100927.41;;;9.91;100.00
71361;BME280;59166;48.908;1.870;2023-04-15T19:44:19;100936.47;;;9.85;100.00
71361;BME280;59166;48.908;1.870;2023-04-15T19:49:23;100952.34;;;9.70;100.00
71361;BME280;59166;48.908;1.870;2023-04-15T19:54:29;100950.16;;;9.55;100.00
71361;BME280;59166;48.908;1.870;2023-04-15T19:59:33;100967.53;;;9.48;100.00
71361;BME280;59166;48.908;1.870;2023-04-15T20:04:37;100964.63;;;9.38;100.00
71361;BME280;59166;48.908;1.870;2023-04-15T20:09:40;100976.81;;;9.28;100.00
71361;BME280;59166;48.908;1.870;2023-04-15T20:14:43;100979.97;;;9.14;100.00
71361;BME280;59166;48.908;1.870;2023-04-15T20:19:48;100991.59;;;9.14;100.00
71361;BME280;59166;48.908;1.870;2023-04-15T20:35:46;100993.78;;;8.94;100.00
71361;BME280;59166;48.908;1.870;2023-04-15T20:41:12;101001.34;;;8.86;100.00
71361;BME280;59166;48.908;1.870;2023-04-15T20:46:56;101001.91;;;8.76;100.00
71361;BME280;59166;48.908;1.870;2023-04-15T20:51:57;101007.88;;;8.66;100.00
71361;BME280;59166;48.908;1.870;2023-04-15T21:08:15;101031.34;;;8.48;100.00
71361;BME280;59166;48.908;1.870;2023-04-15T21:13:19;101031.22;;;8.43;100.00
71361;BME280;59166;48.908;1.870;2023-04-15T21:18:23;101037.81;;;8.28;100.00
71361;BME280;59166;48.908;1.870;2023-04-15T21:23:28;101051.94;;;8.24;100.00
71361;BME280;59166;48.908;1.870;2023-04-15T21:28:32;101061.75;;;8.18;100.00
71361;BME280;59166;48.908;1.870;2023-04-15T21:33:33;101067.59;;;8.15;100.00
71361;BME280;59166;48.908;1.870;2023-04-15T21:38:35;101070.38;;;8.09;100.00
71361;BME280;59166;48.908;1.870;2023-04-15T21:43:36;101073.59;;;7.99;100.00
71361;BME280;59166;48.908;1.870;2023-04-15T21:48:40;101079.88;;;7.93;100.00
71361;BME280;59166;48.908;1.870;2023-04-15T21:53:43;101093.59;;;7.85;100.00
71361;BME280;59166;48.908;1.870;2023-04-15T21:58:43;101093.31;;;7.75;100.00
71361;BME280;59166;48.908;1.870;2023-04-15T22:03:45;101101.56;;;7.73;100.00
71361;BME280;59166;48.908;1.870;2023-04-15T22:08:48;101110.34;;;7.69;100.00
71361;BME280;59166;48.908;1.870;2023-04-15T22:13:49;101119.06;;;7.64;100.00
71361;BME280;59166;48.908;1.870;2023-04-15T22:18:50;101124.50;;;7.58;100.00
71361;BME280;59166;48.908;1.870;2023-04-15T22:23:54;101120.66;;;7.47;100.00
71361;BME280;59166;48.908;1.870;2023-04-15T22:28:55;101118.59;;;7.43;100.00
71361;BME280;59166;48.908;1.870;2023-04-15T22:33:56;101115.59;;;7.33;100.00
71361;BME280;59166;48.908;1.870;2023-04-15T22:38:58;101130.78;;;7.20;100.00
71361;BME280;59166;48.908;1.870;2023-04-15T22:44:02;101130.50;;;7.04;100.00
71361;BME280;59166;48.908;1.870;2023-04-15T22:49:05;101132.84;;;6.94;100.00
71361;BME280;59166;48.908;1.870;2023-04-15T22:54:08;101137.38;;;6.93;100.00
71361;BME280;59166;48.908;1.870;2023-04-15T22:59:11;101147.56;;;6.85;100.00
71361;BME280;59166;48.908;1.870;2023-04-15T23:04:12;101127.63;;;6.67;100.00
71361;BME280;59166;48.908;1.870;2023-04-15T23:09:15;101141.47;;;6.64;100.00
71361;BME280;59166;48.908;1.870;2023-04-15T23:14:16;101131.44;;;6.47;100.00
71361;BME280;59166;48.908;1.870;2023-04-15T23:19:17;101137.22;;;6.37;100.00
71361;BME280;59166;48.908;1.870;2023-04-15T23:24:19;101157.88;;;6.37;100.00
71361;BME280;59166;48.908;1.870;2023-04-15T23:29:22;101153.16;;;6.25;100.00
71361;BME280;59166;48.908;1.870;2023-04-15T23:34:23;101154.84;;;6.13;100.00
71361;BME280;59166;48.908;1.870;2023-04-15T23:39:25;101158.38;;;6.07;100.00
71361;BME280;59166;48.908;1.870;2023-04-15T23:44:31;101160.22;;;6.07;100.00
71361;BME280;59166;48.908;1.870;2023-04-15T23:49:32;101157.56;;;5.94;100.00
71361;BME280;59166;48.908;1.870;2023-04-15T23:54:34;101148.91;;;5.85;100.00
71361;BME280;59166;48.908;1.870;2023-04-15T23:59:35;101158.81;;;5.78;100.00
